createdAt,value
2017-03-18T00:00:25.881Z,0
2017-03-18T00:01:35.822Z,0
2017-03-18T00:02:46.110Z,0
2017-03-18T00:03:56.365Z,0
2017-03-18T00:05:06.622Z,0
2017-03-18T00:06:16.879Z,0
2017-03-18T00:07:27.142Z,0
2017-03-18T00:08:37.393Z,0
2017-03-18T00:09:47.655Z,0
2017-03-18T00:10:58.255Z,0
2017-03-18T00:12:08.514Z,0
2017-03-18T00:13:18.772Z,0
2017-03-18T00:14:29.040Z,0
2017-03-18T00:15:38.672Z,0
2017-03-18T00:16:48.927Z,0
2017-03-18T00:17:59.186Z,0
2017-03-18T00:19:09.135Z,0
2017-03-18T00:20:19.388Z,0
2017-03-18T00:21:29.324Z,0
2017-03-18T00:22:39.581Z,0
2017-03-18T00:23:49.841Z,0
2017-03-18T00:25:00.101Z,0
2017-03-18T00:26:10.040Z,0
2017-03-18T00:27:19.977Z,0
2017-03-18T00:28:30.232Z,0
2017-03-18T00:29:40.494Z,0
2017-03-18T00:30:50.125Z,0
2017-03-18T00:32:00.377Z,0
2017-03-18T00:33:10.640Z,0
2017-03-18T00:34:20.895Z,0
2017-03-18T00:35:31.164Z,0
2017-03-18T00:36:41.110Z,0
2017-03-18T00:37:51.055Z,0
2017-03-18T00:39:01.313Z,0
2017-03-18T00:40:11.678Z,0
2017-03-18T00:41:21.936Z,0
2017-03-18T00:42:32.190Z,0
2017-03-18T00:43:42.443Z,0
2017-03-18T00:44:52.703Z,0
2017-03-18T00:46:02.953Z,0
2017-03-18T00:47:12.580Z,0
2017-03-18T00:48:22.523Z,0
2017-03-18T00:49:32.471Z,0
2017-03-18T00:50:42.727Z,0
2017-03-18T00:51:52.984Z,0
2017-03-18T00:53:03.239Z,0
2017-03-18T00:54:13.187Z,0
2017-03-18T00:55:23.479Z,0
2017-03-18T00:56:33.134Z,0
2017-03-18T00:57:43.079Z,0
2017-03-18T00:58:53.341Z,0
2017-03-18T01:00:03.613Z,0
2017-03-18T01:01:13.243Z,0
2017-03-18T01:02:23.507Z,0
2017-03-18T01:03:33.773Z,0
2017-03-18T01:04:43.397Z,0
2017-03-18T01:05:53.691Z,0
2017-03-18T01:07:03.941Z,0
2017-03-18T01:08:13.881Z,0
2017-03-18T01:09:23.827Z,0
2017-03-18T01:10:34.084Z,0
2017-03-18T01:11:43.713Z,0
2017-03-18T01:12:53.656Z,0
2017-03-18T01:14:03.913Z,0
2017-03-18T01:15:14.169Z,0
2017-03-18T01:16:24.112Z,0
2017-03-18T01:17:34.400Z,0
2017-03-18T01:18:44.349Z,0
2017-03-18T01:19:54.606Z,0
2017-03-18T01:21:04.878Z,0
2017-03-18T01:22:15.142Z,0
2017-03-18T01:23:25.417Z,0
2017-03-18T01:24:35.680Z,0
2017-03-18T01:25:45.932Z,0
2017-03-18T01:26:56.189Z,0
2017-03-18T01:28:06.444Z,0
2017-03-18T01:29:16.385Z,0
2017-03-18T01:30:26.643Z,0
2017-03-18T01:31:36.581Z,0
2017-03-18T01:32:46.528Z,0
2017-03-18T01:33:56.798Z,0
2017-03-18T01:35:07.106Z,0
2017-03-18T01:36:17.369Z,0
2017-03-18T01:37:27.310Z,0
2017-03-18T01:38:37.251Z,0
2017-03-18T01:39:47.515Z,0
2017-03-18T01:40:57.461Z,0
2017-03-18T01:42:07.398Z,0
2017-03-18T01:43:17.336Z,0
2017-03-18T01:44:27.601Z,0
2017-03-18T01:45:37.861Z,0
2017-03-18T01:46:48.114Z,0
2017-03-18T01:47:58.371Z,0
2017-03-18T01:49:08.625Z,0
2017-03-18T01:50:18.592Z,0
2017-03-18T01:51:28.860Z,0
2017-03-18T01:52:39.125Z,0
2017-03-18T01:53:49.072Z,0
2017-03-18T01:54:59.338Z,0
2017-03-18T01:56:09.598Z,0
2017-03-18T01:57:19.541Z,0
2017-03-18T01:58:29.808Z,0
2017-03-18T01:59:40.064Z,0
2017-03-18T02:00:50.317Z,0
2017-03-18T02:02:00.574Z,0
2017-03-18T02:03:10.839Z,0
2017-03-18T02:04:21.106Z,0
2017-03-18T02:05:31.365Z,0
2017-03-18T02:06:40.990Z,0
2017-03-18T02:07:50.934Z,0
2017-03-18T02:09:01.195Z,0
2017-03-18T02:10:11.451Z,0
2017-03-18T02:11:21.395Z,0
2017-03-18T02:12:31.644Z,0
2017-03-18T02:13:41.906Z,0
2017-03-18T02:14:52.168Z,0
2017-03-18T02:16:02.439Z,0
2017-03-18T02:17:12.691Z,0
2017-03-18T02:18:22.637Z,0
2017-03-18T02:19:32.892Z,0
2017-03-18T02:20:42.518Z,0
2017-03-18T02:21:52.770Z,0
2017-03-18T02:23:03.027Z,0
2017-03-18T02:24:13.293Z,0
2017-03-18T02:25:23.239Z,0
2017-03-18T02:26:33.496Z,0
2017-03-18T02:27:43.463Z,0
2017-03-18T02:28:53.723Z,0
2017-03-18T02:30:03.986Z,0
2017-03-18T02:31:13.930Z,0
2017-03-18T02:32:24.180Z,0
2017-03-18T02:33:34.435Z,0
2017-03-18T02:34:44.683Z,0
2017-03-18T02:35:54.935Z,0
2017-03-18T02:37:05.129Z,0
2017-03-18T02:38:15.076Z,0
2017-03-18T02:39:24.748Z,0
2017-03-18T02:40:35.007Z,0
2017-03-18T02:41:45.271Z,0
2017-03-18T02:42:55.531Z,0
2017-03-18T02:44:05.797Z,0
2017-03-18T02:45:16.047Z,0
2017-03-18T02:46:26.026Z,0
2017-03-18T02:47:36.281Z,0
2017-03-18T02:48:46.238Z,0
2017-03-18T02:49:56.514Z,0
2017-03-18T02:51:06.771Z,0
2017-03-18T02:52:16.711Z,0
2017-03-18T02:53:26.660Z,0
2017-03-18T02:54:36.601Z,0
2017-03-18T02:55:46.861Z,0
2017-03-18T02:56:57.114Z,0
2017-03-18T02:58:07.375Z,0
2017-03-18T02:59:17.334Z,0
2017-03-18T03:00:29.285Z,0
2017-03-18T03:01:39.546Z,0
2017-03-18T03:02:49.813Z,0
2017-03-18T03:04:00.074Z,0
2017-03-18T03:05:10.041Z,0
2017-03-18T03:06:20.294Z,0
2017-03-18T03:07:30.556Z,0
2017-03-18T03:08:40.825Z,0
2017-03-18T03:09:51.094Z,0
2017-03-18T03:11:01.351Z,0
2017-03-18T03:12:11.291Z,0
2017-03-18T03:13:21.543Z,0
2017-03-18T03:14:31.835Z,0
2017-03-18T03:15:41.776Z,0
2017-03-18T03:16:52.063Z,0
2017-03-18T03:18:02.320Z,0
2017-03-18T03:19:12.577Z,0
2017-03-18T03:20:22.838Z,0
2017-03-18T03:21:33.094Z,0
2017-03-18T03:22:43.361Z,0
2017-03-18T03:23:53.629Z,0
2017-03-18T03:25:03.895Z,0
2017-03-18T03:26:13.837Z,0
2017-03-18T03:27:23.774Z,0
2017-03-18T03:28:34.031Z,0
2017-03-18T03:29:44.296Z,0
2017-03-18T03:30:54.236Z,0
2017-03-18T03:32:04.489Z,0
2017-03-18T03:33:14.437Z,0
2017-03-18T03:34:24.704Z,0
2017-03-18T03:35:34.968Z,0
2017-03-18T03:36:45.242Z,0
2017-03-18T03:37:55.193Z,0
2017-03-18T03:39:05.453Z,0
2017-03-18T03:40:15.710Z,0
2017-03-18T03:41:25.333Z,0
2017-03-18T03:42:35.588Z,0
2017-03-18T03:43:45.882Z,0
2017-03-18T03:44:56.145Z,0
2017-03-18T03:46:06.091Z,0
2017-03-18T03:47:16.351Z,0
2017-03-18T03:48:26.607Z,0
2017-03-18T03:49:36.861Z,0
2017-03-18T03:50:47.147Z,0
2017-03-18T03:51:57.402Z,0
2017-03-18T03:53:07.661Z,0
2017-03-18T03:54:17.920Z,0
2017-03-18T03:55:27.866Z,0
2017-03-18T03:56:37.805Z,0
2017-03-18T03:57:47.750Z,0
2017-03-18T03:58:58.012Z,0
2017-03-18T04:00:07.955Z,0
2017-03-18T04:01:17.590Z,0
2017-03-18T04:02:27.531Z,0
2017-03-18T04:03:37.795Z,0
2017-03-18T04:04:48.054Z,0
2017-03-18T04:05:58.303Z,0
2017-03-18T04:07:08.578Z,0
2017-03-18T04:08:18.523Z,0
2017-03-18T04:09:28.465Z,0
2017-03-18T04:10:38.716Z,0
2017-03-18T04:11:48.662Z,0
2017-03-18T04:12:58.921Z,0
2017-03-18T04:14:09.206Z,0
2017-03-18T04:15:19.178Z,0
2017-03-18T04:16:29.431Z,0
2017-03-18T04:17:39.690Z,0
2017-03-18T04:18:49.961Z,0
2017-03-18T04:20:00.231Z,0
2017-03-18T04:21:10.487Z,0
2017-03-18T04:22:20.424Z,0
2017-03-18T04:23:30.691Z,0
2017-03-18T04:24:40.954Z,0
2017-03-18T04:25:51.213Z,0
2017-03-18T04:27:01.162Z,0
2017-03-18T04:28:10.793Z,0
2017-03-18T04:29:21.055Z,0
2017-03-18T04:30:30.683Z,0
2017-03-18T04:31:40.946Z,0
2017-03-18T04:32:51.207Z,0
2017-03-18T04:34:01.466Z,0
2017-03-18T04:35:11.720Z,0
2017-03-18T04:36:21.972Z,0
2017-03-18T04:37:31.912Z,0
2017-03-18T04:38:42.177Z,0
2017-03-18T04:39:52.433Z,0
2017-03-18T04:41:02.689Z,0
2017-03-18T04:42:12.951Z,0
2017-03-18T04:43:22.899Z,0
2017-03-18T04:44:32.876Z,0
2017-03-18T04:45:43.130Z,0
2017-03-18T04:46:53.070Z,0
2017-03-18T04:48:03.326Z,4
2017-03-18T04:49:13.584Z,4
2017-03-18T04:50:23.217Z,0
2017-03-18T04:51:33.157Z,0
2017-03-18T04:52:43.414Z,4
2017-03-18T04:53:53.401Z,0
2017-03-18T04:55:03.662Z,4
2017-03-18T04:56:13.599Z,4
2017-03-18T04:57:23.537Z,4
2017-03-18T04:58:33.800Z,4
2017-03-18T04:59:44.057Z,8
2017-03-18T05:00:54.000Z,4
2017-03-18T05:02:04.256Z,8
2017-03-18T05:03:14.518Z,8
2017-03-18T05:04:24.466Z,8
2017-03-18T05:05:34.719Z,12
2017-03-18T05:06:44.977Z,12
2017-03-18T05:07:55.231Z,16
2017-03-18T05:09:05.500Z,16
2017-03-18T05:10:15.753Z,20
2017-03-18T05:11:25.692Z,20
2017-03-18T05:12:35.947Z,24
2017-03-18T05:13:46.214Z,32
2017-03-18T05:14:56.475Z,36
2017-03-18T05:16:06.741Z,40
2017-03-18T05:17:16.676Z,48
2017-03-18T05:18:26.621Z,56
2017-03-18T05:19:36.885Z,68
2017-03-18T05:20:47.139Z,76
2017-03-18T05:21:57.394Z,84
2017-03-18T05:23:07.657Z,96
2017-03-18T05:24:17.599Z,108
2017-03-18T05:25:27.856Z,120
2017-03-18T05:26:38.111Z,136
2017-03-18T05:27:48.409Z,148
2017-03-18T05:28:58.674Z,160
2017-03-18T05:30:08.928Z,176
2017-03-18T05:31:18.552Z,188
2017-03-18T05:32:28.491Z,208
2017-03-18T05:33:38.760Z,224
2017-03-18T05:34:49.019Z,240
2017-03-18T05:35:59.279Z,256
2017-03-18T05:37:09.545Z,272
2017-03-18T05:38:19.798Z,280
2017-03-18T05:39:30.058Z,296
2017-03-18T05:40:40.314Z,308
2017-03-18T05:41:50.576Z,324
2017-03-18T05:43:00.838Z,336
2017-03-18T05:44:10.786Z,348
2017-03-18T05:45:21.045Z,364
2017-03-18T05:46:31.006Z,380
2017-03-18T05:47:41.309Z,392
2017-03-18T05:48:51.569Z,404
2017-03-18T05:50:01.884Z,420
2017-03-18T05:51:11.826Z,428
2017-03-18T05:52:21.760Z,444
2017-03-18T05:53:31.393Z,464
2017-03-18T05:54:41.337Z,484
2017-03-18T05:55:51.637Z,504
2017-03-18T05:57:01.901Z,524
2017-03-18T05:58:11.857Z,548
2017-03-18T05:59:21.807Z,576
2017-03-18T06:00:31.776Z,592
2017-03-18T06:01:41.713Z,596
2017-03-18T06:02:51.661Z,616
2017-03-18T06:04:01.922Z,672
2017-03-18T06:05:12.177Z,724
2017-03-18T06:06:22.433Z,768
2017-03-18T06:07:32.379Z,816
2017-03-18T06:08:42.639Z,844
2017-03-18T06:09:52.905Z,876
2017-03-18T06:11:03.157Z,912
2017-03-18T06:12:13.407Z,952
2017-03-18T06:13:23.678Z,992
2017-03-18T06:14:33.938Z,1040
2017-03-18T06:15:43.883Z,1084
2017-03-18T06:16:54.140Z,1144
2017-03-18T06:18:04.093Z,1212
2017-03-18T06:19:14.357Z,1284
2017-03-18T06:20:24.633Z,1356
2017-03-18T06:21:34.572Z,1432
2017-03-18T06:22:44.518Z,1516
2017-03-18T06:23:54.781Z,1596
2017-03-18T06:25:04.441Z,1676
2017-03-18T06:26:14.384Z,1752
2017-03-18T06:27:24.319Z,1820
2017-03-18T06:28:34.263Z,1868
2017-03-18T06:29:44.521Z,1900
2017-03-18T06:30:54.778Z,1932
2017-03-18T06:32:05.033Z,1972
2017-03-18T06:33:15.010Z,2000
2017-03-18T06:34:25.267Z,2036
2017-03-18T06:35:34.893Z,2048
2017-03-18T06:36:45.151Z,2044
2017-03-18T06:37:55.409Z,2040
2017-03-18T06:39:05.355Z,2032
2017-03-18T06:40:15.611Z,2024
2017-03-18T06:41:25.871Z,2028
2017-03-18T06:42:35.824Z,2040
2017-03-18T06:43:46.087Z,2068
2017-03-18T06:44:56.349Z,2104
2017-03-18T06:46:06.608Z,2144
2017-03-18T06:47:16.859Z,2180
2017-03-18T06:48:27.112Z,2224
2017-03-18T06:49:37.061Z,2268
2017-03-18T06:50:46.998Z,2312
2017-03-18T06:51:56.953Z,2384
2017-03-18T06:53:07.220Z,2488
2017-03-18T06:54:17.478Z,2584
2017-03-18T06:55:27.739Z,2700
2017-03-18T06:56:37.676Z,2828
2017-03-18T06:57:47.623Z,2960
2017-03-18T06:58:57.569Z,3056
2017-03-18T07:00:07.842Z,3152
2017-03-18T07:01:17.472Z,3224
2017-03-18T07:02:27.733Z,3292
2017-03-18T07:03:37.674Z,3356
2017-03-18T07:04:47.930Z,3408
2017-03-18T07:05:58.186Z,3476
2017-03-18T07:07:08.443Z,3536
2017-03-18T07:08:18.389Z,3568
2017-03-18T07:09:28.648Z,3600
2017-03-18T07:10:38.906Z,3656
2017-03-18T07:11:49.172Z,3700
2017-03-18T07:12:59.447Z,3728
2017-03-18T07:14:09.416Z,3748
2017-03-18T07:15:19.356Z,3772
2017-03-18T07:16:29.298Z,3796
2017-03-18T07:17:39.238Z,3820
2017-03-18T07:18:49.493Z,3848
2017-03-18T07:19:59.756Z,3868
2017-03-18T07:21:10.011Z,3892
2017-03-18T07:22:20.270Z,3912
2017-03-18T07:23:32.635Z,3944
2017-03-18T07:24:42.578Z,3976
2017-03-18T07:25:52.520Z,4024
2017-03-18T07:27:02.778Z,4072
2017-03-18T07:28:13.042Z,4132
2017-03-18T07:29:23.340Z,4204
2017-03-18T07:30:33.600Z,4288
2017-03-18T07:31:43.548Z,4368
2017-03-18T07:32:53.806Z,4436
2017-03-18T07:34:04.065Z,4484
2017-03-18T07:35:14.319Z,4500
2017-03-18T07:36:24.575Z,4504
2017-03-18T07:37:34.835Z,4524
2017-03-18T07:38:44.467Z,4560
2017-03-18T07:39:54.727Z,4620
2017-03-18T07:41:04.988Z,4696
2017-03-18T07:42:15.239Z,4784
2017-03-18T07:43:25.499Z,4880
2017-03-18T07:44:35.445Z,4980
2017-03-18T07:45:45.708Z,5092
2017-03-18T07:46:55.959Z,5204
2017-03-18T07:48:06.222Z,5284
2017-03-18T07:49:16.487Z,5340
2017-03-18T07:50:26.745Z,5356
2017-03-18T07:51:36.687Z,5348
2017-03-18T07:52:46.943Z,5332
2017-03-18T07:53:56.581Z,5332
2017-03-18T07:55:06.841Z,5340
2017-03-18T07:56:17.113Z,5368
2017-03-18T07:57:27.377Z,5444
2017-03-18T07:58:37.645Z,5548
2017-03-18T07:59:47.910Z,5668
2017-03-18T08:00:58.166Z,5796
2017-03-18T08:02:08.435Z,5920
2017-03-18T08:03:18.388Z,6016
2017-03-18T08:04:28.335Z,6116
2017-03-18T08:05:37.968Z,6204
2017-03-18T08:06:48.226Z,6272
2017-03-18T08:07:58.492Z,6336
2017-03-18T08:09:08.448Z,6388
2017-03-18T08:10:18.716Z,6416
2017-03-18T08:11:28.666Z,6428
2017-03-18T08:12:38.608Z,6440
2017-03-18T08:13:48.873Z,6432
2017-03-18T08:14:59.140Z,6400
2017-03-18T08:16:09.399Z,6340
2017-03-18T08:17:19.655Z,6260
2017-03-18T08:18:29.605Z,6128
2017-03-18T08:19:39.240Z,6032
2017-03-18T08:20:49.511Z,5888
2017-03-18T08:21:59.771Z,5764
2017-03-18T08:23:09.404Z,5616
2017-03-18T08:24:19.681Z,5512
2017-03-18T08:25:29.636Z,5416
2017-03-18T08:26:39.583Z,5316
2017-03-18T08:27:49.847Z,5212
2017-03-18T08:29:00.109Z,5108
2017-03-18T08:30:10.050Z,5016
2017-03-18T08:31:20.304Z,4924
2017-03-18T08:32:30.565Z,4832
2017-03-18T08:33:40.836Z,4764
2017-03-18T08:34:51.098Z,4712
2017-03-18T08:36:01.043Z,4668
2017-03-18T08:37:10.987Z,4612
2017-03-18T08:38:20.939Z,4560
2017-03-18T08:39:30.921Z,4476
2017-03-18T08:40:41.188Z,4376
2017-03-18T08:41:51.137Z,4272
2017-03-18T08:43:01.396Z,4172
2017-03-18T08:44:11.350Z,4096
2017-03-18T08:45:21.615Z,4040
2017-03-18T08:46:31.871Z,4000
2017-03-18T08:47:42.142Z,3948
2017-03-18T08:48:52.413Z,3784
2017-03-18T08:50:02.681Z,3848
2017-03-18T08:51:12.629Z,3908
2017-03-18T08:52:22.889Z,3888
2017-03-18T08:53:33.150Z,3860
2017-03-18T08:54:43.412Z,3840
2017-03-18T08:55:53.673Z,3812
2017-03-18T08:57:03.934Z,3784
2017-03-18T08:58:14.201Z,3764
2017-03-18T08:59:24.466Z,3760
2017-03-18T09:00:34.732Z,3768
2017-03-18T09:01:44.987Z,3780
2017-03-18T09:02:55.252Z,3816
2017-03-18T09:04:05.514Z,3844
2017-03-18T09:05:15.778Z,3888
2017-03-18T09:06:26.034Z,3940
2017-03-18T09:07:35.986Z,4004
2017-03-18T09:08:45.306Z,4064
2017-03-18T09:09:55.287Z,4124
2017-03-18T09:11:05.235Z,4180
2017-03-18T09:12:15.495Z,4228
2017-03-18T09:13:24.819Z,4280
2017-03-18T09:14:35.113Z,4328
2017-03-18T09:15:45.063Z,4368
2017-03-18T09:16:55.001Z,4408
2017-03-18T09:18:05.263Z,4432
2017-03-18T09:19:15.532Z,4452
2017-03-18T09:20:25.516Z,4468
2017-03-18T09:21:35.767Z,4468
2017-03-18T09:22:46.034Z,4464
2017-03-18T09:23:56.300Z,4440
2017-03-18T09:25:06.560Z,4428
2017-03-18T09:26:16.506Z,4404
2017-03-18T09:27:26.769Z,4376
2017-03-18T09:28:37.044Z,4356
2017-03-18T09:29:46.996Z,4320
2017-03-18T09:30:57.263Z,4268
2017-03-18T09:32:07.206Z,4228
2017-03-18T09:33:17.470Z,4124
2017-03-18T09:34:27.439Z,3976
2017-03-18T09:35:37.694Z,3964
2017-03-18T09:36:47.946Z,3908
2017-03-18T09:37:58.204Z,3848
2017-03-18T09:39:08.149Z,3916
2017-03-18T09:40:18.415Z,3992
2017-03-18T09:41:28.360Z,3896
2017-03-18T09:42:37.992Z,3840
2017-03-18T09:43:47.943Z,3784
2017-03-18T09:44:58.203Z,3736
2017-03-18T09:46:08.466Z,3764
2017-03-18T09:47:18.425Z,3736
2017-03-18T09:48:28.075Z,3712
2017-03-18T09:49:38.345Z,3700
2017-03-18T09:50:48.607Z,3764
2017-03-18T09:51:58.861Z,3760
2017-03-18T09:53:08.811Z,3820
2017-03-18T09:54:19.079Z,3816
2017-03-18T09:55:29.332Z,3852
2017-03-18T09:56:39.584Z,3928
2017-03-18T09:57:49.849Z,4088
2017-03-18T09:58:59.808Z,4056
2017-03-18T10:00:09.454Z,4056
2017-03-18T10:01:19.708Z,4056
2017-03-18T10:02:29.961Z,4192
2017-03-18T10:03:39.906Z,4160
2017-03-18T10:04:50.159Z,4144
2017-03-18T10:06:00.115Z,4116
2017-03-18T10:07:10.381Z,4148
2017-03-18T10:08:20.318Z,4204
2017-03-18T10:09:30.583Z,4204
2017-03-18T10:10:40.842Z,4208
2017-03-18T10:11:51.097Z,4208
2017-03-18T10:13:01.361Z,4212
2017-03-18T10:14:11.630Z,4212
2017-03-18T10:15:21.892Z,4216
2017-03-18T10:16:32.151Z,4216
2017-03-18T10:17:42.409Z,4216
2017-03-18T10:18:52.672Z,4220
2017-03-18T10:20:02.625Z,4220
2017-03-18T10:21:12.886Z,4228
2017-03-18T10:22:22.510Z,4232
2017-03-18T10:23:32.462Z,4236
2017-03-18T10:24:42.426Z,4244
2017-03-18T10:25:52.679Z,4248
2017-03-18T10:27:02.668Z,4256
2017-03-18T10:28:12.613Z,4264
2017-03-18T10:29:22.872Z,4272
2017-03-18T10:30:33.135Z,4276
2017-03-18T10:31:43.080Z,4280
2017-03-18T10:32:53.023Z,4288
2017-03-18T10:34:03.342Z,4300
2017-03-18T10:35:13.607Z,4304
2017-03-18T10:36:23.861Z,4312
2017-03-18T10:37:34.118Z,4320
2017-03-18T10:38:44.067Z,4328
2017-03-18T10:39:54.021Z,4336
2017-03-18T10:41:04.327Z,4348
2017-03-18T10:42:14.585Z,4364
2017-03-18T10:43:24.534Z,4372
2017-03-18T10:44:34.478Z,4380
2017-03-18T10:45:44.741Z,4396
2017-03-18T10:46:54.998Z,4408
2017-03-18T10:48:05.263Z,4412
2017-03-18T10:49:15.522Z,4416
2017-03-18T10:50:25.790Z,4432
2017-03-18T10:51:36.048Z,4448
2017-03-18T10:52:46.317Z,4460
2017-03-18T10:53:56.577Z,4468
2017-03-18T10:55:06.841Z,4480
2017-03-18T10:56:17.137Z,4504
2017-03-18T10:57:27.427Z,4516
2017-03-18T10:58:37.684Z,4540
2017-03-18T10:59:47.640Z,4568
2017-03-18T11:00:57.903Z,4592
2017-03-18T11:02:07.846Z,4632
2017-03-18T11:03:18.105Z,4668
2017-03-18T11:04:28.368Z,4696
2017-03-18T11:05:37.994Z,4720
2017-03-18T11:06:47.936Z,4764
2017-03-18T11:07:57.891Z,4772
2017-03-18T11:09:08.151Z,4868
2017-03-18T11:10:18.096Z,5008
2017-03-18T11:11:28.356Z,5512
2017-03-18T11:12:38.619Z,7696
2017-03-18T11:13:48.882Z,29408
2017-03-18T11:14:59.148Z,73344
2017-03-18T11:16:09.416Z,75744
2017-03-18T11:17:19.676Z,77248
2017-03-18T11:18:29.629Z,69664
2017-03-18T11:19:39.894Z,26368
2017-03-18T11:20:50.155Z,24768
2017-03-18T11:22:00.418Z,27776
2017-03-18T11:23:10.688Z,20960
2017-03-18T11:24:20.957Z,71808
2017-03-18T11:25:30.907Z,64096
2017-03-18T11:26:41.174Z,55392
2017-03-18T11:27:51.133Z,13956
2017-03-18T11:29:01.400Z,12772
2017-03-18T11:30:11.350Z,10204
2017-03-18T11:31:21.318Z,9084
2017-03-18T11:32:31.584Z,8692
2017-03-18T11:33:41.861Z,8948
2017-03-18T11:34:51.813Z,9448
2017-03-18T11:36:02.075Z,9976
2017-03-18T11:37:12.365Z,10560
2017-03-18T11:38:22.637Z,11012
2017-03-18T11:39:32.900Z,10512
2017-03-18T11:40:42.852Z,8916
2017-03-18T11:41:53.116Z,7768
2017-03-18T11:43:03.376Z,7828
2017-03-18T11:44:13.322Z,8356
2017-03-18T11:45:23.591Z,51840
2017-03-18T11:46:33.536Z,47936
2017-03-18T11:47:42.862Z,35360
2017-03-18T11:48:53.126Z,45824
2017-03-18T11:50:02.764Z,55264
2017-03-18T11:51:12.716Z,55360
2017-03-18T11:52:22.977Z,55552
2017-03-18T11:53:33.247Z,54848
2017-03-18T11:54:43.510Z,55136
2017-03-18T11:55:53.778Z,53792
2017-03-18T11:57:03.729Z,52384
2017-03-18T11:58:14.004Z,52736
2017-03-18T11:59:24.279Z,52960
2017-03-18T12:00:34.544Z,56320
2017-03-18T12:01:44.519Z,55616
2017-03-18T12:02:54.474Z,20064
2017-03-18T12:04:04.744Z,55072
2017-03-18T12:05:14.380Z,54336
2017-03-18T12:06:24.352Z,52000
2017-03-18T12:07:34.031Z,50976
2017-03-18T12:08:44.304Z,47232
2017-03-18T12:09:54.579Z,41984
2017-03-18T12:11:04.853Z,37248
2017-03-18T12:12:15.125Z,35424
2017-03-18T12:13:25.092Z,34624
2017-03-18T12:14:35.362Z,33408
2017-03-18T12:15:47.639Z,30432
2017-03-18T12:16:57.595Z,30624
2017-03-18T12:18:07.861Z,28800
2017-03-18T12:19:17.827Z,26784
2017-03-18T12:20:28.139Z,26688
2017-03-18T12:21:38.413Z,25632
2017-03-18T12:22:48.382Z,25440
2017-03-18T12:23:58.651Z,25216
2017-03-18T12:25:08.611Z,24992
2017-03-18T12:26:18.879Z,24864
2017-03-18T12:27:29.147Z,23872
2017-03-18T12:28:38.800Z,23936
2017-03-18T12:29:49.076Z,24512
2017-03-18T12:30:59.033Z,24352
2017-03-18T12:32:08.986Z,24704
2017-03-18T12:33:19.269Z,20992
2017-03-18T12:34:29.548Z,23808
2017-03-18T12:35:39.820Z,23328
2017-03-18T12:36:49.471Z,23392
2017-03-18T12:37:59.433Z,19648
2017-03-18T12:39:09.401Z,22848
2017-03-18T12:40:19.686Z,22816
2017-03-18T12:41:29.956Z,22240
2017-03-18T12:42:40.224Z,22784
2017-03-18T12:43:49.567Z,23008
2017-03-18T12:44:59.852Z,22912
2017-03-18T12:46:09.818Z,23424
2017-03-18T12:47:20.119Z,24608
2017-03-18T12:48:30.089Z,25440
2017-03-18T12:49:40.051Z,24288
2017-03-18T12:50:50.028Z,7788
2017-03-18T12:52:00.291Z,18592
2017-03-18T12:53:10.254Z,24896
2017-03-18T12:54:20.220Z,23648
2017-03-18T12:55:30.174Z,23776
2017-03-18T12:56:40.445Z,23872
2017-03-18T12:57:50.722Z,23904
2017-03-18T12:59:00.693Z,24224
2017-03-18T13:00:10.654Z,24288
2017-03-18T13:01:20.925Z,24608
2017-03-18T13:02:31.204Z,24608
2017-03-18T13:03:41.165Z,24064
2017-03-18T13:04:51.161Z,24128
2017-03-18T13:06:01.137Z,24416
2017-03-18T13:07:11.094Z,24800
2017-03-18T13:08:21.374Z,24608
2017-03-18T13:09:31.664Z,23584
2017-03-18T13:10:41.314Z,22848
2017-03-18T13:11:51.587Z,24320
2017-03-18T13:13:01.560Z,24576
2017-03-18T13:14:11.845Z,23456
2017-03-18T13:15:22.153Z,21280
2017-03-18T13:16:32.112Z,22432
2017-03-18T13:17:42.072Z,23296
2017-03-18T13:18:52.361Z,21504
2017-03-18T13:20:02.323Z,18208
2017-03-18T13:21:12.284Z,15196
2017-03-18T13:22:22.560Z,15116
2017-03-18T13:23:32.520Z,15596
2017-03-18T13:24:42.487Z,22976
2017-03-18T13:25:52.822Z,28768
2017-03-18T13:27:02.786Z,22912
2017-03-18T13:28:13.055Z,23456
2017-03-18T13:29:23.030Z,20832
2017-03-18T13:30:32.989Z,26656
2017-03-18T13:31:42.960Z,18400
2017-03-18T13:32:52.927Z,15208
2017-03-18T13:34:03.203Z,24672
2017-03-18T13:35:13.196Z,33472
2017-03-18T13:36:23.461Z,20704
2017-03-18T13:37:33.726Z,21888
2017-03-18T13:38:44.009Z,19264
2017-03-18T13:39:54.286Z,13564
2017-03-18T13:41:04.256Z,12984
2017-03-18T13:42:13.898Z,16800
2017-03-18T13:43:24.272Z,22080
2017-03-18T13:44:34.541Z,33152
2017-03-18T13:45:44.803Z,14664
2017-03-18T13:46:55.063Z,13328
2017-03-18T13:48:05.326Z,25760
2017-03-18T13:49:18.859Z,25568
2017-03-18T13:50:28.814Z,19904
2017-03-18T13:51:39.082Z,25408
2017-03-18T13:52:49.351Z,24544
2017-03-18T13:53:59.318Z,27808
2017-03-18T13:55:09.272Z,13060
2017-03-18T13:56:19.226Z,14824
2017-03-18T13:57:29.178Z,16704
2017-03-18T13:58:39.451Z,12136
2017-03-18T13:59:49.729Z,28512
2017-03-18T14:00:59.681Z,32704
2017-03-18T14:02:09.951Z,25120
2017-03-18T14:03:20.221Z,21280
2017-03-18T14:04:30.485Z,16096
2017-03-18T14:05:40.436Z,12844
2017-03-18T14:06:50.699Z,15268
2017-03-18T14:08:00.666Z,11940
2017-03-18T14:09:10.964Z,11752
2017-03-18T14:10:21.230Z,17920
2017-03-18T14:11:31.201Z,14528
2017-03-18T14:12:41.471Z,15520
2017-03-18T14:13:51.739Z,26176
2017-03-18T14:15:02.013Z,26016
2017-03-18T14:16:11.989Z,32288
2017-03-18T14:17:22.255Z,26144
2017-03-18T14:18:32.824Z,23264
2017-03-18T14:19:43.099Z,15116
2017-03-18T14:20:53.400Z,22208
2017-03-18T14:22:03.666Z,20064
2017-03-18T14:23:13.301Z,14184
2017-03-18T14:24:23.573Z,15372
2017-03-18T14:25:33.839Z,22112
2017-03-18T14:26:44.098Z,24864
2017-03-18T14:27:54.047Z,27840
2017-03-18T14:29:03.998Z,29312
2017-03-18T14:30:14.264Z,34752
2017-03-18T14:31:24.533Z,29280
2017-03-18T14:32:34.504Z,19936
2017-03-18T14:33:44.777Z,17856
2017-03-18T14:34:55.053Z,18432
2017-03-18T14:36:05.314Z,20800
2017-03-18T14:37:15.264Z,32288
2017-03-18T14:38:25.567Z,46016
2017-03-18T14:39:35.516Z,50592
2017-03-18T14:40:45.472Z,50784
2017-03-18T14:41:55.417Z,50912
2017-03-18T14:43:05.371Z,47040
2017-03-18T14:44:15.648Z,42112
2017-03-18T14:45:25.599Z,45792
2017-03-18T14:46:35.548Z,39584
2017-03-18T14:47:45.496Z,38304
2017-03-18T14:48:55.780Z,40864
2017-03-18T14:50:06.097Z,40192
2017-03-18T14:51:16.053Z,43904
2017-03-18T14:52:26.330Z,45408
2017-03-18T14:53:36.291Z,46560
2017-03-18T14:54:46.556Z,47328
2017-03-18T14:55:56.195Z,46656
2017-03-18T14:57:06.458Z,46208
2017-03-18T14:58:16.739Z,47104
2017-03-18T14:59:27.006Z,44992
2017-03-18T15:00:37.273Z,33376
2017-03-18T15:01:47.552Z,20832
2017-03-18T15:02:57.816Z,35808
2017-03-18T15:04:07.776Z,40128
2017-03-18T15:05:17.733Z,34368
2017-03-18T15:06:27.694Z,30464
2017-03-18T15:07:37.970Z,31744
2017-03-18T15:08:48.244Z,34144
2017-03-18T15:09:58.525Z,37824
2017-03-18T15:11:08.480Z,41696
2017-03-18T15:12:18.442Z,42624
2017-03-18T15:13:28.717Z,42496
2017-03-18T15:14:38.993Z,41664
2017-03-18T15:15:49.269Z,40000
2017-03-18T15:16:59.539Z,41024
2017-03-18T15:18:08.869Z,40416
2017-03-18T15:19:19.135Z,40032
2017-03-18T15:20:29.403Z,40032
2017-03-18T15:21:39.670Z,39680
2017-03-18T15:22:49.635Z,37568
2017-03-18T15:23:59.910Z,34944
2017-03-18T15:25:09.865Z,36416
2017-03-18T15:26:20.131Z,36384
2017-03-18T15:27:30.406Z,37184
2017-03-18T15:28:40.053Z,37024
2017-03-18T15:29:50.320Z,35968
2017-03-18T15:31:00.276Z,35136
2017-03-18T15:32:10.542Z,34496
2017-03-18T15:33:20.192Z,34176
2017-03-18T15:34:30.489Z,34240
2017-03-18T15:35:40.453Z,32864
2017-03-18T15:36:50.417Z,32128
2017-03-18T15:38:00.689Z,30240
2017-03-18T15:39:10.964Z,31488
2017-03-18T15:40:20.929Z,29952
2017-03-18T15:41:30.569Z,23744
2017-03-18T15:42:40.849Z,21952
2017-03-18T15:43:50.810Z,18208
2017-03-18T15:45:00.773Z,14560
2017-03-18T15:46:10.730Z,12244
2017-03-18T15:47:20.687Z,12196
2017-03-18T15:48:30.951Z,10404
2017-03-18T15:49:40.910Z,8312
2017-03-18T15:50:51.179Z,8672
2017-03-18T15:52:01.138Z,8512
2017-03-18T15:53:11.102Z,9104
2017-03-18T15:54:21.378Z,10092
2017-03-18T15:55:31.662Z,10928
2017-03-18T15:56:41.923Z,10728
2017-03-18T15:57:52.188Z,10864